Diamond, Washington
Current Conditions -  °F | °C
As of 8:53 AM on Thursday 18 Dec 2014 (Local Time) from KPUW Reporting Station
Overcast Overcast  
Wind Chill: 33°   Ceiling: 7500
Heat Index: 38°   Visibility: 10mi
Dew Point: 35°   Wind: 6mph
Humidity: 89%   Direction: 90°E
Pressure: 30.02"   Gusts: NA
Location:  46.8882°N, 117.4°W
Report Text: KPUW 181653Z AUTO 09005KT 10SM OVC075 03/02 A3002 RMK AO2 SLP181 T00330017
Loading
Personal Weather Stations






























Interactive Weather Map New forecast layout! Learn more

10-Day Weather Forecast

Advertisements
Track Severe Weather on mobile